Time;durP1;ratioP1;P1;durP2;ratioP2;P2;SDS_P1;SDS_P2;PMS_P1;PMS_P2;Temp;Humidity;BMP_temperature;BMP_pressure;BME280_temperature;BME280_humidity;BME280_pressure;Samples;Min_cycle;Max_cycle;Signal;HPM_P1;HPM_P2
2021/10/10 00:01:59;;;;;;;13.35;7.35;;;;;;;9.47;64.88;93444.84;2068377;69;20199;-73
2021/10/10 00:04:25;;;;;;;11.15;7.00;;;;;;;9.65;63.82;93448.31;2065247;69;20162;-72
2021/10/10 00:06:51;;;;;;;11.90;7.18;;;;;;;9.69;64.18;93437.38;2068288;69;20477;-72
2021/10/10 00:09:16;;;;;;;13.15;7.30;;;;;;;9.71;64.49;93445.97;2065002;69;20149;-73
2021/10/10 00:11:42;;;;;;;11.65;7.35;;;;;;;9.74;63.78;93444.78;2068390;69;20151;-72
2021/10/10 00:14:08;;;;;;;12.68;7.25;;;;;;;9.68;64.27;93444.34;2068316;69;20198;-73
2021/10/10 00:16:33;;;;;;;11.70;7.03;;;;;;;9.67;64.25;93443.59;2068247;69;20512;-75
2021/10/10 00:18:59;;;;;;;10.35;6.82;;;;;;;9.63;64.96;93443.28;2067910;69;20168;-72
2021/10/10 00:21:24;;;;;;;11.90;7.18;;;;;;;9.62;64.48;93446.66;2065032;69;20679;-72
2021/10/10 00:23:50;;;;;;;9.98;7.07;;;;;;;9.53;64.99;93450.97;2068287;69;20164;-72
2021/10/10 00:26:16;;;;;;;10.27;7.45;;;;;;;9.60;64.43;93447.25;2068605;69;20245;-73
2021/10/10 00:28:41;;;;;;;9.85;6.82;;;;;;;9.60;65.56;93447.25;2068435;69;20537;-72
2021/10/10 00:31:07;;;;;;;10.43;7.03;;;;;;;9.57;65.47;93440.00;2068394;69;20128;-73
2021/10/10 00:33:33;;;;;;;13.13;6.68;;;;;;;9.58;64.50;93440.75;2068424;69;20244;-72
2021/10/10 00:35:58;;;;;;;12.13;7.38;;;;;;;9.46;65.16;93442.63;2065079;69;20141;-71
2021/10/10 00:38:24;;;;;;;10.85;7.07;;;;;;;9.52;64.22;93441.03;2068424;69;20512;-74
2021/10/10 00:40:50;;;;;;;10.25;7.18;;;;;;;9.51;64.81;93433.19;2065111;69;20151;-71
2021/10/10 00:43:17;;;;;;;13.52;7.82;;;;;;;9.12;67.58;93442.22;2068547;69;20620;-73
2021/10/10 00:45:51;;;;;;;12.60;7.43;;;;;;;9.44;65.86;93443.22;2068198;69;20203;-72
2021/10/10 00:48:17;;;;;;;11.18;6.90;;;;;;;9.46;66.37;93442.63;2068408;69;20140;-75
2021/10/10 00:50:42;;;;;;;11.27;6.50;;;;;;;9.50;65.88;93440.88;2065096;69;20151;-75
2021/10/10 00:53:11;;;;;;;10.90;6.60;;;;;;;9.53;64.86;93438.94;2068535;69;20148;-75
2021/10/10 00:55:37;;;;;;;9.82;6.90;;;;;;;9.55;64.54;93445.47;2068411;69;20232;-71
2021/10/10 00:58:03;;;;;;;11.30;6.70;;;;;;;9.36;66.01;93436.97;2068405;69;20248;-72
2021/10/10 01:00:29;;;;;;;12.32;7.80;;;;;;;9.18;67.27;93435.56;2068262;69;20156;-72
2021/10/10 01:02:58;;;;;;;10.93;7.50;;;;;;;9.47;66.27;93435.69;2068406;69;20149;-74
2021/10/10 01:05:25;;;;;;;14.25;7.57;;;;;;;9.39;65.74;93436.56;2068420;69;20231;-71
2021/10/10 01:07:52;;;;;;;15.75;7.72;;;;;;;9.47;64.70;93433.59;2068405;69;20152;-71
2021/10/10 01:10:18;;;;;;;12.73;7.03;;;;;;;9.53;63.81;93428.47;2068391;69;20140;-71
2021/10/10 01:12:44;;;;;;;13.98;7.78;;;;;;;9.27;66.65;93429.25;2068444;69;20140;-72
2021/10/10 01:15:11;;;;;;;11.93;7.95;;;;;;;9.35;66.07;93424.25;2068412;69;20136;-71
2021/10/10 01:17:38;;;;;;;12.18;7.63;;;;;;;9.28;66.83;93422.31;2068415;69;20136;-73
2021/10/10 01:20:07;;;;;;;11.23;7.45;;;;;;;9.42;66.17;93429.00;2068395;69;20197;-74
2021/10/10 01:22:33;;;;;;;12.25;7.20;;;;;;;9.47;64.84;93419.56;2068358;69;20719;-72
2021/10/10 01:24:59;;;;;;;12.35;7.07;;;;;;;9.39;67.11;93425.31;2068209;69;20244;-72
2021/10/10 01:27:25;;;;;;;14.75;8.00;;;;;;;9.27;67.97;93418.75;2068500;69;20152;-72
2021/10/10 01:29:51;;;;;;;9.98;6.85;;;;;;;9.40;66.53;93426.06;2068394;69;20149;-74
2021/10/10 01:32:17;;;;;;;11.77;7.25;;;;;;;9.39;66.61;93424.56;2068424;69;20167;-71
2021/10/10 01:34:44;;;;;;;12.60;7.18;;;;;;;9.37;66.22;93415.97;2068376;69;20136;-71
2021/10/10 01:37:11;;;;;;;12.02;7.72;;;;;;;9.34;66.29;93419.94;2068364;69;20206;-72
2021/10/10 01:39:37;;;;;;;12.80;7.85;;;;;;;9.19;67.53;93418.13;2068327;69;20243;-72
2021/10/10 01:42:02;;;;;;;15.57;9.05;;;;;;;9.24;66.91;93414.31;2071299;69;20152;-72
2021/10/10 01:44:28;;;;;;;14.82;8.63;;;;;;;9.25;66.35;93415.78;2071736;69;20159;-73
2021/10/10 01:46:54;;;;;;;16.52;8.57;;;;;;;9.26;66.51;93410.94;2071643;69;20140;-73
2021/10/10 01:49:20;;;;;;;14.85;8.40;;;;;;;9.27;66.75;93418.75;2071044;69;20180;-74
2021/10/10 01:51:46;;;;;;;13.15;8.00;;;;;;;9.28;65.67;93403.38;2071632;69;20672;-76
2021/10/10 01:54:11;;;;;;;12.35;7.40;;;;;;;9.22;65.80;93405.72;2071620;69;20235;-76
2021/10/10 01:56:37;;;;;;;11.52;7.30;;;;;;;9.29;65.26;93404.13;2071831;69;20600;-74
2021/10/10 01:59:03;;;;;;;11.60;7.55;;;;;;;9.14;66.74;93400.22;2071769;69;20140;-76
2021/10/10 02:01:28;;;;;;;16.95;7.00;;;;;;;8.96;67.71;93407.22;2071807;69;20582;-76
2021/10/10 02:03:55;;;;;;;12.75;7.65;;;;;;;8.97;67.50;93394.66;2071717;69;20175;-73
2021/10/10 02:06:20;;;;;;;11.50;7.50;;;;;;;8.89;67.06;93405.28;2071762;69;20243;-73
2021/10/10 02:08:47;;;;;;;11.48;7.15;;;;;;;8.97;66.74;93397.47;2068348;69;20152;-73
2021/10/10 02:11:12;;;;;;;10.98;6.82;;;;;;;8.97;66.08;93391.13;2068298;69;20206;-71
2021/10/10 02:13:38;;;;;;;14.80;7.40;;;;;;;8.80;67.67;93394.75;2071644;69;20130;-71
2021/10/10 02:16:05;;;;;;;10.65;7.00;;;;;;;8.83;66.17;93390.75;2071664;69;20141;-72
2021/10/10 02:18:33;;;;;;;12.07;7.03;;;;;;;8.76;67.04;93389.56;2071695;69;20239;-71
2021/10/10 02:20:58;;;;;;;10.30;7.13;;;;;;;8.68;67.46;93383.31;2071624;69;20151;-71
2021/10/10 02:23:25;;;;;;;12.93;6.78;;;;;;;8.50;67.88;93385.41;2071520;69;20141;-73
2021/10/10 02:25:50;;;;;;;10.82;7.18;;;;;;;8.62;67.09;93382.81;2068258;69;20498;-72
2021/10/10 02:28:18;;;;;;;10.77;6.35;;;;;;;8.57;66.78;93367.75;2071648;69;20140;-74
2021/10/10 02:30:49;;;;;;;9.65;6.75;;;;;;;8.45;66.71;93374.44;2071721;69;20148;-72
2021/10/10 02:33:15;;;;;;;10.82;6.50;;;;;;;8.49;66.03;93375.50;2071549;69;20164;-74
2021/10/10 02:35:41;;;;;;;10.25;6.45;;;;;;;8.45;65.54;93363.22;2071719;69;20241;-74
2021/10/10 02:38:06;;;;;;;11.60;7.07;;;;;;;8.37;66.22;93364.06;2071609;69;20187;-71
2021/10/10 02:40:33;;;;;;;10.90;7.00;;;;;;;8.33;65.96;93366.50;2071482;69;20243;-71
2021/10/10 02:42:58;;;;;;;11.98;7.05;;;;;;;8.21;66.24;93376.03;2068244;69;20637;-71
2021/10/10 02:45:24;;;;;;;11.20;6.90;;;;;;;8.13;66.23;93367.69;2071773;69;20151;-71
2021/10/10 02:47:50;;;;;;;8.40;6.18;;;;;;;8.11;67.15;93364.75;2071627;69;20156;-72
2021/10/10 02:50:17;;;;;;;11.52;6.70;;;;;;;8.08;66.49;93366.63;2071578;69;20171;-71
2021/10/10 02:52:42;;;;;;;10.40;6.72;;;;;;;7.95;67.04;93366.97;2071596;69;20600;-74
2021/10/10 02:55:09;;;;;;;10.45;6.20;;;;;;;7.99;66.03;93358.16;2071430;69;20144;-72
2021/10/10 02:57:35;;;;;;;10.20;7.15;;;;;;;7.90;67.46;93363.09;2071466;69;20571;-74
2021/10/10 03:00:00;;;;;;;12.82;7.43;;;;;;;7.81;67.06;93357.41;2071738;69;20513;-71
2021/10/10 03:02:26;;;;;;;13.15;7.85;;;;;;;7.90;67.96;93362.38;2068795;69;20155;-73
2021/10/10 03:04:51;;;;;;;12.15;7.57;;;;;;;7.91;66.77;93358.22;2068735;69;20626;-74
2021/10/10 03:07:17;;;;;;;11.50;6.95;;;;;;;7.72;67.97;93358.81;2072054;69;20580;-74
2021/10/10 03:09:43;;;;;;;10.82;6.85;;;;;;;7.70;68.04;93361.47;2072062;69;20626;-74
2021/10/10 03:12:08;;;;;;;12.65;6.75;;;;;;;7.75;66.85;93356.94;2068758;69;20144;-71
2021/10/10 03:14:34;;;;;;;9.68;6.60;;;;;;;7.70;66.67;93361.47;2072169;69;20137;-71
2021/10/10 03:16:59;;;;;;;9.57;6.60;;;;;;;7.60;66.71;93358.56;2072039;69;20164;-71
2021/10/10 03:19:25;;;;;;;9.75;6.43;;;;;;;7.68;65.92;93357.75;2072057;69;20140;-70
2021/10/10 03:21:50;;;;;;;11.05;6.90;;;;;;;7.59;66.04;93348.66;2072028;69;20136;-71
2021/10/10 03:24:16;;;;;;;11.90;7.10;;;;;;;7.51;66.37;93355.66;2071912;69;20152;-72
2021/10/10 03:26:42;;;;;;;11.57;6.63;;;;;;;7.41;67.12;93346.44;2072085;69;20147;-71
2021/10/10 03:29:07;;;;;;;12.10;6.72;;;;;;;7.42;67.22;93343.03;2072038;69;20148;-72
2021/10/10 03:31:33;;;;;;;11.32;6.78;;;;;;;7.39;67.09;93350.56;2072030;69;20193;-71
2021/10/10 03:33:58;;;;;;;10.40;6.78;;;;;;;7.30;67.54;93348.41;2072110;69;20548;-73
2021/10/10 03:36:24;;;;;;;11.02;7.10;;;;;;;7.28;67.12;93339.81;2071964;69;20144;-74
2021/10/10 03:38:49;;;;;;;11.90;6.50;;;;;;;7.27;66.81;93351.59;2071858;69;20195;-75
2021/10/10 03:41:15;;;;;;;12.35;6.95;;;;;;;7.25;67.49;93348.66;2071959;69;20151;-75
2021/10/10 03:43:41;;;;;;;12.55;7.90;;;;;;;7.23;67.56;93346.41;2072097;69;20231;-73
2021/10/10 03:46:06;;;;;;;11.57;7.60;;;;;;;7.30;66.58;93350.47;2071856;69;20148;-73
2021/10/10 03:48:32;;;;;;;12.93;7.85;;;;;;;7.27;66.69;93351.59;2071984;69;20140;-73
2021/10/10 03:50:57;;;;;;;10.80;7.10;;;;;;;7.10;67.83;93329.91;2071972;69;20607;-73
2021/10/10 03:53:32;;;;;;;12.95;7.80;;;;;;;7.01;67.77;93348.09;2071783;69;20168;-74
2021/10/10 03:55:58;;;;;;;12.50;7.72;;;;;;;7.21;66.56;93342.69;2071985;69;20153;-73
2021/10/10 03:58:24;;;;;;;11.52;7.25;;;;;;;7.12;66.96;93344.09;2071858;69;20156;-73
2021/10/10 04:00:50;;;;;;;11.25;6.88;;;;;;;6.99;68.03;93349.97;2068733;69;20172;-73
2021/10/10 04:03:19;;;;;;;12.43;6.75;;;;;;;7.08;66.85;93340.94;2071965;69;20144;-74
2021/10/10 04:05:46;;;;;;;11.73;6.90;;;;;;;7.05;67.48;93345.63;2072024;69;20149;-76
2021/10/10 04:08:12;;;;;;;12.05;7.32;;;;;;;6.93;68.08;93347.41;2071899;69;20203;-73
2021/10/10 04:10:37;;;;;;;16.05;7.78;;;;;;;6.91;67.96;93335.28;2068476;69;20592;-75
2021/10/10 04:13:06;;;;;;;12.98;7.63;;;;;;;6.85;67.90;93335.53;2071823;69;20149;-75
2021/10/10 04:15:33;;;;;;;14.57;7.03;;;;;;;6.69;68.55;93332.13;2071903;69;20147;-75
2021/10/10 04:17:59;;;;;;;12.45;7.13;;;;;;;6.85;67.29;93333.47;2071910;69;20132;-75
2021/10/10 04:20:24;;;;;;;13.82;7.40;;;;;;;6.88;67.18;93332.34;2071899;69;20144;-73
2021/10/10 04:22:50;;;;;;;11.52;7.05;;;;;;;6.78;68.41;93328.69;2068615;69;20622;-74
2021/10/10 04:25:16;;;;;;;10.10;7.00;;;;;;;6.78;68.00;93322.31;2071749;69;20164;-73
2021/10/10 04:27:42;;;;;;;10.73;6.95;;;;;;;6.73;67.60;93324.03;2071899;69;20524;-75
2021/10/10 04:30:12;;;;;;;11.80;7.18;;;;;;;6.78;67.37;93317.50;2068585;69;20144;-73
2021/10/10 04:32:37;;;;;;;10.45;6.40;;;;;;;6.80;66.63;93320.44;2071894;69;20685;-73
2021/10/10 04:35:03;;;;;;;9.75;6.70;;;;;;;6.68;67.22;93322.22;2072003;69;20149;-73
2021/10/10 04:37:29;;;;;;;12.07;7.32;;;;;;;6.71;67.63;93331.53;2071901;69;20183;-71
2021/10/10 04:39:55;;;;;;;16.20;8.45;;;;;;;6.68;67.26;93330.59;2071891;69;20235;-76
2021/10/10 04:42:20;;;;;;;12.27;7.80;;;;;;;6.70;67.35;93328.00;2072096;69;20168;-75
2021/10/10 04:44:46;;;;;;;12.85;7.05;;;;;;;6.62;67.64;93325.25;2071896;69;20243;-75
2021/10/10 04:47:11;;;;;;;11.30;7.10;;;;;;;6.64;66.89;93324.66;2071869;69;20614;-75
2021/10/10 04:49:37;;;;;;;11.65;6.93;;;;;;;6.43;68.97;93318.69;2071885;69;20137;-75
2021/10/10 04:52:03;;;;;;;12.00;6.78;;;;;;;6.57;67.43;93323.41;2071966;69;20601;-76
2021/10/10 04:54:29;;;;;;;13.55;8.05;;;;;;;6.60;67.11;93324.34;2071716;69;20155;-73
2021/10/10 04:56:55;;;;;;;11.27;6.95;;;;;;;6.68;67.01;93327.81;2071817;69;20140;-73
2021/10/10 04:59:21;;;;;;;12.73;7.80;;;;;;;6.47;68.26;93319.03;2068517;69;20183;-73
2021/10/10 05:01:46;;;;;;;12.05;6.75;;;;;;;6.78;65.78;93319.53;2071927;69;20153;-73
2021/10/10 05:04:12;;;;;;;11.63;7.80;;;;;;;6.54;67.66;93329.41;2068516;69;20136;-74
2021/10/10 05:06:38;;;;;;;14.05;7.60;;;;;;;6.16;69.61;93324.78;2071892;69;20516;-73
2021/10/10 05:09:03;;;;;;;11.48;7.35;;;;;;;6.40;68.15;93328.94;2071805;69;20152;-73
2021/10/10 05:11:30;;;;;;;14.13;6.47;;;;;;;6.55;67.43;93331.66;2068464;69;20164;-72
2021/10/10 05:13:56;;;;;;;12.60;6.88;;;;;;;6.72;66.71;93324.63;2071753;69;20201;-73
2021/10/10 05:16:21;;;;;;;11.43;6.75;;;;;;;6.76;66.09;93331.31;2071726;69;20611;-75
2021/10/10 05:18:47;;;;;;;14.07;7.13;;;;;;;6.85;65.67;93327.13;2071859;69;20179;-74
2021/10/10 05:21:12;;;;;;;10.98;7.00;;;;;;;6.54;67.01;93318.22;2071773;69;20184;-75
2021/10/10 05:23:38;;;;;;;11.82;7.30;;;;;;;6.54;66.77;93330.16;2071765;69;20492;-75
2021/10/10 05:26:04;;;;;;;14.00;7.30;;;;;;;6.52;66.73;93329.25;2071861;69;20156;-73
2021/10/10 05:28:30;;;;;;;10.05;6.50;;;;;;;6.52;66.86;93332.78;2071765;69;20174;-73
2021/10/10 05:30:56;;;;;;;11.57;7.18;;;;;;;6.15;69.54;93337.28;2071767;69;20152;-72
2021/10/10 05:33:22;;;;;;;12.82;6.97;;;;;;;6.44;67.24;93336.94;2071750;69;20209;-73
2021/10/10 05:35:48;;;;;;;11.93;6.97;;;;;;;6.40;67.31;93342.19;2071762;69;20140;-72
2021/10/10 05:38:13;;;;;;;16.73;7.30;;;;;;;6.43;66.85;93335.47;2071752;69;20156;-74
2021/10/10 05:40:39;;;;;;;11.68;6.97;;;;;;;6.36;67.39;93340.50;2071919;69;20152;-72
2021/10/10 05:43:05;;;;;;;11.13;7.10;;;;;;;6.45;66.55;93344.00;2068401;69;20199;-73
2021/10/10 05:45:31;;;;;;;10.82;6.95;;;;;;;6.27;68.20;93346.72;2071714;69;20612;-73
2021/10/10 05:47:56;;;;;;;10.40;7.40;;;;;;;6.34;68.22;93345.94;2071735;69;20172;-73
2021/10/10 05:50:22;;;;;;;13.45;6.78;;;;;;;6.39;67.54;93346.28;2071846;69;20171;-75
2021/10/10 05:52:48;;;;;;;11.40;6.82;;;;;;;6.47;66.96;93341.41;2068396;69;20681;-76
2021/10/10 05:55:15;;;;;;;11.73;6.78;;;;;;;6.33;67.60;93338.13;2068284;69;20140;-76
2021/10/10 05:57:48;;;;;;;10.45;6.90;;;;;;;5.95;69.35;93341.09;2071588;69;20642;-73
2021/10/10 06:00:15;;;;;;;;;;;;;;;6.01;70.27;93344.44;2072007;69;20205;-72
2021/10/10 06:02:42;;;;;;;11.93;6.72;;;;;;;6.07;68.77;93334.53;2071772;69;20497;-72
2021/10/10 06:05:10;;;;;;;13.00;6.93;;;;;;;6.33;67.13;93349.31;2071781;69;20299;-73
2021/10/10 06:07:37;;;;;;;12.98;8.05;;;;;;;6.26;67.89;93348.03;2071633;69;20179;-73
2021/10/10 06:10:04;;;;;;;11.20;7.28;;;;;;;6.28;67.91;93348.22;2071561;69;20160;-72
2021/10/10 06:12:30;;;;;;;14.80;7.47;;;;;;;6.18;68.04;93347.31;2071660;69;20140;-72
2021/10/10 06:14:56;;;;;;;16.00;8.07;;;;;;;6.05;68.68;93348.34;2068372;69;20220;-73
2021/10/10 06:17:22;;;;;;;11.70;7.72;;;;;;;6.17;68.10;93345.09;2071635;69;20235;-73
2021/10/10 06:19:47;;;;;;;11.85;7.05;;;;;;;6.08;68.34;93349.25;2068526;69;20164;-75
2021/10/10 06:22:13;;;;;;;14.30;7.68;;;;;;;6.11;67.90;93350.91;2071834;69;20219;-75
2021/10/10 06:24:39;;;;;;;11.57;6.97;;;;;;;6.18;67.26;93350.13;2071445;69;20202;-75
2021/10/10 06:27:04;;;;;;;14.30;8.57;;;;;;;6.14;68.38;93354.59;2071552;69;20148;-75
2021/10/10 06:29:30;;;;;;;13.60;8.32;;;;;;;6.15;68.10;93350.53;2071598;69;20160;-75
2021/10/10 06:31:56;;;;;;;11.10;7.55;;;;;;;6.15;68.21;93362.44;2071725;69;20630;-75
2021/10/10 06:34:21;;;;;;;12.15;7.43;;;;;;;6.21;67.95;93354.59;2071710;69;20158;-73
2021/10/10 06:36:47;;;;;;;11.77;7.30;;;;;;;6.16;68.33;93357.59;2072194;69;20178;-72
2021/10/10 06:39:13;;;;;;;21.90;11.65;;;;;;;5.76;70.78;93352.69;2072024;69;20582;-72
2021/10/10 06:41:39;;;;;;;28.92;14.32;;;;;;;6.01;69.39;93364.75;2072094;69;20144;-71
2021/10/10 06:44:06;;;;;;;16.52;8.60;;;;;;;6.04;68.74;93360.06;2072208;69;20172;-72
2021/10/10 06:46:31;;;;;;;14.95;9.18;;;;;;;5.85;70.29;93357.69;2072037;69;20142;-72
2021/10/10 06:48:57;;;;;;;20.17;10.27;;;;;;;6.01;70.16;93367.53;2072051;69;20168;-73
2021/10/10 06:51:23;;;;;;;19.05;10.88;;;;;;;6.03;68.78;93364.16;2072071;69;20595;-74
2021/10/10 06:53:48;;;;;;;17.35;11.20;;;;;;;5.94;69.66;93368.31;2071994;69;20600;-75
2021/10/10 06:56:14;;;;;;;13.77;9.40;;;;;;;6.00;69.72;93368.84;2072096;69;20160;-75
2021/10/10 06:58:39;;;;;;;14.27;9.70;;;;;;;6.20;68.17;93363.53;2072056;69;20547;-76
2021/10/10 07:01:05;;;;;;;16.80;10.52;;;;;;;6.25;67.58;93365.38;2068764;69;20144;-76
2021/10/10 07:03:30;;;;;;;16.27;8.98;;;;;;;6.14;67.43;93358.19;2068844;69;20630;-76
2021/10/10 07:05:56;;;;;;;14.95;9.00;;;;;;;6.27;66.66;93360.69;2068707;69;20160;-76
2021/10/10 07:08:22;;;;;;;15.93;10.00;;;;;;;6.31;67.39;93363.09;2072059;69;20155;-72
2021/10/10 07:10:47;;;;;;;15.35;9.68;;;;;;;6.27;67.97;93357.16;2072043;69;20144;-72
2021/10/10 07:13:13;;;;;;;17.00;10.50;;;;;;;6.32;67.42;93364.59;2068840;69;20185;-72
2021/10/10 07:15:38;;;;;;;14.48;8.80;;;;;;;6.46;65.25;93357.44;2068778;69;20175;-71
2021/10/10 07:18:05;;;;;;;14.63;9.02;;;;;;;6.36;66.56;93362.13;2072002;69;20138;-73
2021/10/10 07:23:12;;;;;;;12.67;7.30;;;;;;;6.45;67.49;93361.53;2072062;69;20147;-71
2021/10/10 07:25:37;;;;;;;10.70;7.20;;;;;;;6.34;68.08;93365.50;2068794;69;20596;-72
2021/10/10 07:28:03;;;;;;;10.25;6.28;;;;;;;6.39;67.89;93363.81;2072137;69;20215;-76
2021/10/10 07:30:29;;;;;;;9.82;6.47;;;;;;;6.48;67.33;93368.78;2071985;69;20136;-76
2021/10/10 07:32:54;;;;;;;10.73;6.13;;;;;;;6.59;67.19;93365.53;2072067;69;20148;-76
2021/10/10 07:35:20;;;;;;;9.75;6.35;;;;;;;6.50;67.96;93362.63;2072003;69;20232;-77
2021/10/10 07:37:46;;;;;;;11.40;5.80;;;;;;;6.28;68.92;93356.59;2071971;69;20516;-77
2021/10/10 07:40:12;;;;;;;11.65;6.97;;;;;;;6.55;67.95;93362.41;2071934;69;20136;-77
2021/10/10 07:42:38;;;;;;;12.05;7.90;;;;;;;6.60;66.68;93355.84;2071959;69;20206;-72
2021/10/10 07:45:08;;;;;;;14.77;8.27;;;;;;;6.63;67.50;93365.16;2071913;69;20148;-72
2021/10/10 07:50:03;;;;;;;13.48;8.13;;;;;;;6.58;67.46;93357.72;2071985;69;20198;-73
2021/10/10 07:52:29;;;;;;;15.35;9.30;;;;;;;6.71;67.86;93365.13;2071961;69;20528;-72
2021/10/10 07:54:55;;;;;;;16.02;9.27;;;;;;;7.13;66.25;93359.56;2071913;69;20140;-73
2021/10/10 07:57:20;;;;;;;15.02;9.73;;;;;;;7.55;67.25;93364.41;2072011;69;20168;-73
2021/10/10 07:59:46;;;;;;;17.05;10.55;;;;;;;8.09;65.76;93367.38;2071953;69;20204;-73
2021/10/10 08:02:11;;;;;;;17.95;11.07;;;;;;;8.51;66.75;93361.63;2071963;69;20136;-77
2021/10/10 08:04:37;;;;;;;17.92;10.95;;;;;;;8.79;65.81;93365.91;2072178;69;20182;-77
2021/10/10 08:07:03;;;;;;;18.30;11.48;;;;;;;9.47;64.93;93373.84;2071950;69;20148;-77
2021/10/10 08:09:28;;;;;;;18.25;10.60;;;;;;;9.72;63.73;93370.81;2068474;69;20192;-77
2021/10/10 08:11:54;;;;;;;18.00;11.80;;;;;;;9.75;62.29;93370.34;2072071;69;20128;-78
2021/10/10 08:14:19;;;;;;;15.95;10.57;;;;;;;10.14;60.39;93368.31;2071926;69;20227;-74
2021/10/10 08:16:45;;;;;;;13.60;9.43;;;;;;;10.91;59.77;93378.00;2071909;69;20202;-71
2021/10/10 08:19:11;;;;;;;14.10;9.40;;;;;;;11.28;59.77;93372.81;2071920;69;20141;-70
2021/10/10 08:21:37;;;;;;;12.63;9.50;;;;;;;11.26;57.98;93367.03;2072011;69;20519;-70
2021/10/10 08:24:03;;;;;;;14.55;9.07;;;;;;;11.50;57.84;93370.03;2071786;69;20251;-71
2021/10/10 08:26:30;;;;;;;14.55;8.68;;;;;;;11.53;55.79;93363.94;2071863;69;20264;-72
2021/10/10 08:28:56;;;;;;;19.48;10.68;;;;;;;12.40;55.32;93368.25;2071994;69;20152;-71
2021/10/10 08:31:26;;;;;;;15.52;9.35;;;;;;;12.11;54.32;93372.06;2071870;69;20159;-71
2021/10/10 08:33:52;;;;;;;17.10;11.00;;;;;;;12.30;53.77;93367.63;2068506;69;20140;-73
2021/10/10 08:36:18;;;;;;;11.88;8.65;;;;;;;12.32;54.05;93374.09;2071924;69;20156;-75
2021/10/10 08:38:44;;;;;;;13.63;8.90;;;;;;;12.84;54.39;93366.81;2071718;69;20140;-75
2021/10/10 08:41:12;;;;;;;17.80;9.20;;;;;;;13.14;50.87;93368.69;2071778;69;20140;-75
2021/10/10 08:43:38;;;;;;;13.13;8.45;;;;;;;13.03;52.94;93372.25;2068536;69;20152;-75
2021/10/10 08:46:05;;;;;;;15.10;8.13;;;;;;;13.56;51.47;93372.72;2071778;69;20235;-75
2021/10/10 08:48:32;;;;;;;11.52;7.40;;;;;;;14.29;50.04;93375.53;2071967;69;20186;-75
2021/10/10 08:50:59;;;;;;;12.50;6.45;;;;;;;14.84;45.80;93370.88;2068468;69;20140;-73
2021/10/10 08:53:25;;;;;;;10.52;7.15;;;;;;;15.02;47.35;93367.59;2071678;69;20153;-73
2021/10/10 08:55:52;;;;;;;8.73;6.68;;;;;;;14.87;47.61;93369.66;2071777;69;20159;-73
2021/10/10 08:58:20;;;;;;;9.85;7.10;;;;;;;15.06;45.28;93373.50;2071700;69;20547;-74
2021/10/10 09:01:01;;;;;;;10.70;6.35;;;;;;;15.28;46.30;93363.38;2071775;69;20143;-74
2021/10/10 09:03:26;;;;;;;10.80;6.47;;;;;;;15.50;45.57;93361.72;2068468;69;20176;-74
2021/10/10 09:05:52;;;;;;;10.02;8.25;;;;;;;15.35;44.61;93355.91;2071723;69;20216;-73
2021/10/10 09:08:19;;;;;;;11.07;7.22;;;;;;;15.51;47.02;93349.00;2071664;69;20164;-74
2021/10/10 09:10:56;;;;;;;10.00;7.30;;;;;;;16.20;45.12;93351.84;2071707;69;20178;-73
2021/10/10 09:13:27;;;;;;;8.95;6.70;;;;;;;16.30;44.73;93348.03;2071656;69;20132;-73
2021/10/10 09:15:55;;;;;;;8.95;6.75;;;;;;;18.06;41.53;93343.50;2071939;69;20602;-78
2021/10/10 09:18:31;;;;;;;10.35;6.75;;;;;;;16.19;44.12;93327.66;2071741;69;20161;-79
2021/10/10 09:21:18;;;;;;;8.40;6.07;;;;;;;16.94;43.27;93339.13;2071816;69;20206;-78
2021/10/10 09:23:49;;;;;;;9.40;6.65;;;;;;;17.98;41.06;93337.44;2071652;69;20143;-76
2021/10/10 09:26:17;;;;;;;8.45;6.47;;;;;;;17.26;42.71;93336.31;2070473;69;20175;-79
2021/10/10 09:28:44;;;;;;;9.88;6.70;;;;;;;18.90;38.82;93333.44;2068166;69;20151;-74
2021/10/10 09:31:10;;;;;;;9.48;6.90;;;;;;;17.25;42.06;93338.44;2071596;69;20164;-77
2021/10/10 09:33:47;;;;;;;7.68;6.22;;;;;;;18.03;39.77;93334.09;2071427;69;20160;-74
2021/10/10 09:36:20;;;;;;;9.45;7.05;;;;;;;17.69;40.56;93329.72;2071699;69;20214;-74
2021/10/10 09:39:09;;;;;;;7.97;5.97;;;;;;;18.75;38.58;93335.00;2071489;69;20136;-75
2021/10/10 09:41:47;;;;;;;7.85;6.40;;;;;;;19.59;36.89;93323.94;2071546;69;20146;-77
2021/10/10 09:44:24;;;;;;;8.55;6.50;;;;;;;19.05;38.04;93329.03;2071555;69;20145;-78
2021/10/10 09:46:50;;;;;;;7.90;6.43;;;;;;;19.29;36.59;93324.28;2071453;69;20132;-77
2021/10/10 09:49:21;;;;;;;9.48;6.60;;;;;;;19.40;36.07;93333.22;2067965;69;20143;-74
2021/10/10 09:51:48;;;;;;;8.57;6.50;;;;;;;18.80;38.18;93327.34;2071480;69;20317;-75
2021/10/10 09:54:14;;;;;;;9.57;6.60;;;;;;;18.99;38.47;93320.97;2071455;69;20600;-77
2021/10/10 09:56:42;;;;;;;8.55;6.35;;;;;;;19.07;38.21;93314.13;2071502;69;20246;-76
2021/10/10 09:59:27;;;;;;;7.43;6.03;;;;;;;17.73;36.73;93309.97;2071372;69;20540;-73
2021/10/10 10:01:53;;;;;;;11.23;6.78;;;;;;;17.72;38.77;93309.22;2071420;69;20509;-76
2021/10/10 10:04:18;;;;;;;8.98;6.85;;;;;;;18.91;37.41;93308.50;2071493;69;20144;-74
2021/10/10 10:06:44;;;;;;;9.48;7.05;;;;;;;18.94;37.47;93302.22;2071324;69;20252;-73
2021/10/10 10:09:12;;;;;;;10.10;7.18;;;;;;;19.50;36.14;93308.63;2067680;69;20163;-72
2021/10/10 10:11:43;;;;;;;8.70;6.88;;;;;;;19.87;36.49;93298.56;2071515;69;20148;-71
2021/10/10 10:14:10;;;;;;;8.95;6.68;;;;;;;20.14;35.15;93297.38;2071256;69;20140;-70
2021/10/10 10:16:43;;;;;;;9.85;6.88;;;;;;;20.03;34.42;93292.72;2071496;69;20508;-74
2021/10/10 10:19:13;;;;;;;7.38;6.38;;;;;;;20.75;33.24;93293.72;2071295;69;20156;-74
2021/10/10 10:21:40;;;;;;;9.20;6.85;;;;;;;20.22;34.25;93280.50;2071543;69;20628;-73
2021/10/10 10:24:10;;;;;;;8.10;6.55;;;;;;;20.86;33.46;93282.63;2071258;69;20589;-75
2021/10/10 10:26:36;;;;;;;8.20;5.95;;;;;;;20.88;33.31;93285.53;2071453;69;20224;-76
2021/10/10 10:29:04;;;;;;;8.85;6.50;;;;;;;19.95;34.49;93287.44;2071366;69;20187;-74
2021/10/10 10:31:33;;;;;;;9.85;6.43;;;;;;;20.57;33.21;93295.97;2068192;69;20132;-73
2021/10/10 10:34:20;;;;;;;6.72;6.03;;;;;;;21.57;32.24;93282.66;2071326;69;20240;-74
2021/10/10 10:37:09;;;;;;;7.28;6.40;;;;;;;21.31;33.78;93285.50;2071627;69;20187;-74
2021/10/10 10:39:37;;;;;;;10.75;6.85;;;;;;;21.18;32.99;93285.75;2071321;69;20183;-75
2021/10/10 10:42:08;;;;;;;9.35;6.38;;;;;;;21.15;33.09;93275.66;2068224;69;20133;-74
2021/10/10 10:44:41;;;;;;;8.52;6.45;;;;;;;21.86;31.39;93285.63;2071444;69;20560;-73
2021/10/10 10:47:10;;;;;;;7.53;6.45;;;;;;;22.74;30.99;93288.69;2068097;69;20139;-73
2021/10/10 10:49:55;;;;;;;6.85;5.85;;;;;;;23.44;29.78;93288.19;2071464;69;20148;-75
2021/10/10 10:52:27;;;;;;;7.22;5.78;;;;;;;23.72;28.10;93293.84;2071626;69;20203;-74
2021/10/10 10:54:55;;;;;;;6.95;5.20;;;;;;;26.12;27.97;93291.41;2071231;69;20152;-76
2021/10/10 10:57:28;;;;;;;6.72;5.78;;;;;;;25.60;26.60;93287.09;2071435;69;20163;-75
2021/10/10 11:00:00;;;;;;;7.47;5.00;;;;;;;27.61;24.97;93284.84;2071432;69;20186;-76
2021/10/10 11:02:57;;;;;;;5.78;4.32;;;;;;;29.55;23.44;93294.16;2071427;69;20168;-76
2021/10/10 11:05:41;;;;;;;5.05;4.55;;;;;;;30.37;22.19;93288.84;2071361;69;20240;-75
2021/10/10 11:08:16;;;;;;;5.40;4.30;;;;;;;30.25;22.06;93276.56;2071402;69;20148;-75
2021/10/10 11:11:02;;;;;;;5.05;4.55;;;;;;;32.44;20.48;93282.13;2071479;69;20173;-77
2021/10/10 11:13:37;;;;;;;5.93;4.25;;;;;;;31.69;19.99;93274.88;2071420;69;20140;-76
2021/10/10 11:16:11;;;;;;;4.43;3.90;;;;;;;32.08;20.28;93281.06;2071564;69;20156;-77
2021/10/10 11:18:59;;;;;;;4.30;3.90;;;;;;;32.76;20.29;93271.47;2068099;69;20141;-78
2021/10/10 11:21:29;;;;;;;5.18;4.10;;;;;;;31.80;20.26;93272.59;2071810;69;20194;-78
2021/10/10 11:23:57;;;;;;;5.22;4.30;;;;;;;32.82;19.70;93262.66;2071790;69;20132;-78
2021/10/10 11:26:24;;;;;;;4.38;3.97;;;;;;;31.18;18.98;93260.75;2071920;69;20508;-78
2021/10/10 11:28:58;;;;;;;4.30;3.78;;;;;;;33.58;19.43;93268.06;2072053;69;20219;-79
2021/10/10 11:31:24;;;;;;;4.28;3.70;;;;;;;33.38;19.09;93255.25;2071855;69;20147;-79
2021/10/10 11:34:01;;;;;;;3.78;3.47;;;;;;;30.18;19.41;93246.09;2071828;69;20159;-77
2021/10/10 11:36:46;;;;;;;4.70;3.88;;;;;;;31.77;20.30;93239.88;2072002;69;20148;-78
2021/10/10 11:39:18;;;;;;;4.07;3.30;;;;;;;32.33;17.96;93240.69;2071784;69;20144;-78